createdAt,value
2023-02-11T00:00:34.923Z,16.20
2023-02-11T00:03:02.018Z,42.78
2023-02-11T00:05:29.234Z,16.73
2023-02-11T00:07:56.246Z,18.10
2023-02-11T00:10:23.439Z,16.23
2023-02-11T00:12:50.537Z,19.17
2023-02-11T00:15:17.990Z,16.17
2023-02-11T00:17:44.979Z,18.52
2023-02-11T00:20:12.448Z,31.98
2023-02-11T00:22:39.508Z,24.33
2023-02-11T00:25:06.920Z,27.88
2023-02-11T00:27:34.085Z,47.05
2023-02-11T00:30:02.459Z,40.33
2023-02-11T00:32:31.006Z,37.97
2023-02-11T00:34:58.255Z,19.15
2023-02-11T00:37:25.253Z,31.45
2023-02-11T00:39:52.463Z,17.65
2023-02-11T00:42:19.562Z,16.73
2023-02-11T00:44:46.563Z,22.83
2023-02-11T00:47:17.077Z,17.85
2023-02-11T00:49:44.404Z,18.63
2023-02-11T00:52:11.424Z,22.85
2023-02-11T00:54:38.528Z,14.68
2023-02-11T00:57:06.940Z,35.50
2023-02-11T00:59:33.961Z,29.15
2023-02-11T01:02:01.941Z,24.83
2023-02-11T01:04:28.966Z,17.52
2023-02-11T01:06:56.175Z,24.10
2023-02-11T01:09:25.193Z,26.75
2023-02-11T01:11:52.298Z,17.85
2023-02-11T01:14:19.362Z,25.67
2023-02-11T01:16:46.475Z,17.92
2023-02-11T01:19:13.768Z,18.33
2023-02-11T01:21:41.067Z,15.13
2023-02-11T01:24:08.267Z,18.20
2023-02-11T01:26:36.239Z,17.27
2023-02-11T01:29:04.058Z,16.27
2023-02-11T01:31:31.729Z,18.38
2023-02-11T01:34:01.271Z,13.35
2023-02-11T01:36:28.562Z,21.15
2023-02-11T01:38:55.767Z,15.70
2023-02-11T01:41:22.808Z,15.27
2023-02-11T01:43:50.905Z,20.50
2023-02-11T01:46:38.530Z,12.68
2023-02-11T01:49:15.298Z,19.63
2023-02-11T01:51:47.808Z,19.10
2023-02-11T01:54:40.728Z,19.27
2023-02-11T01:57:27.708Z,22.60
2023-02-11T01:59:58.146Z,15.65
2023-02-11T02:02:43.046Z,25.70
2023-02-11T02:05:16.794Z,18.75
2023-02-11T02:07:56.237Z,14.25
2023-02-11T02:10:26.557Z,14.95
2023-02-11T02:12:53.764Z,14.55
2023-02-11T02:15:34.032Z,20.48
2023-02-11T02:18:15.169Z,29.20
2023-02-11T02:20:51.458Z,24.63
2023-02-11T02:23:57.939Z,28.90
2023-02-11T02:26:54.038Z,44.90
2023-02-11T02:29:42.694Z,12.27
2023-02-11T02:32:33.665Z,12.57
2023-02-11T02:35:12.909Z,13.98
2023-02-11T02:37:52.212Z,25.25
2023-02-11T02:40:29.709Z,14.75
2023-02-11T02:42:58.514Z,9.95
2023-02-11T02:45:25.486Z,14.38
2023-02-11T02:47:52.687Z,17.48
2023-02-11T02:50:30.390Z,12.38
2023-02-11T02:53:20.520Z,10.57
2023-02-11T02:55:47.656Z,11.38
2023-02-11T02:58:33.506Z,7.97
2023-02-11T03:01:19.082Z,12.50
2023-02-11T03:04:01.677Z,11.68
2023-02-11T03:06:47.314Z,10.00
2023-02-11T03:09:40.537Z,22.27
2023-02-11T03:12:10.800Z,23.63
2023-02-11T03:14:39.116Z,16.10
2023-02-11T03:17:08.619Z,25.55
2023-02-11T03:19:38.968Z,10.70
2023-02-11T03:22:12.058Z,14.77
2023-02-11T03:24:41.532Z,12.35
2023-02-11T03:27:20.708Z,14.13
2023-02-11T03:29:59.733Z,22.73
2023-02-11T03:32:36.547Z,16.08
2023-02-11T03:35:21.769Z,20.42
2023-02-11T03:37:55.652Z,14.57
2023-02-11T03:40:32.791Z,12.65
2023-02-11T03:43:13.340Z,16.63
2023-02-11T03:45:41.283Z,27.95
2023-02-11T03:48:43.288Z,36.38
2023-02-11T03:51:12.883Z,26.67
2023-02-11T03:53:43.255Z,26.70
2023-02-11T03:56:18.074Z,20.63
2023-02-11T03:58:46.164Z,14.25
2023-02-11T04:01:13.413Z,14.48
2023-02-11T04:03:40.596Z,14.98
2023-02-11T04:06:08.116Z,11.80
2023-02-11T04:08:35.264Z,12.15
2023-02-11T04:11:02.418Z,13.55
2023-02-11T04:13:29.956Z,16.08
2023-02-11T04:15:57.050Z,10.82
2023-02-11T04:18:24.428Z,11.88
2023-02-11T04:20:51.634Z,13.93
2023-02-11T04:23:18.689Z,12.00
2023-02-11T04:25:45.877Z,15.63
2023-02-11T04:28:13.874Z,13.50
2023-02-11T04:30:41.251Z,14.50
2023-02-11T04:33:08.311Z,14.38
2023-02-11T04:35:35.480Z,15.45
2023-02-11T04:38:03.822Z,14.63
2023-02-11T04:40:30.984Z,18.30
2023-02-11T04:42:58.159Z,13.48
2023-02-11T04:45:25.258Z,11.27
2023-02-11T04:47:52.418Z,15.13
2023-02-11T04:50:19.580Z,11.80
2023-02-11T04:52:46.810Z,13.48
2023-02-11T04:55:14.054Z,13.73
2023-02-11T04:57:41.134Z,12.23
2023-02-11T05:00:10.142Z,16.90
2023-02-11T05:02:37.221Z,11.10
2023-02-11T05:05:05.199Z,14.43
2023-02-11T05:07:32.561Z,12.80
2023-02-11T05:09:59.695Z,14.95
2023-02-11T05:12:26.753Z,12.13
2023-02-11T05:14:53.975Z,16.40
2023-02-11T05:17:21.148Z,15.65
2023-02-11T05:19:48.426Z,16.38
2023-02-11T05:22:15.409Z,14.70
2023-02-11T05:24:42.564Z,12.73
2023-02-11T05:27:09.620Z,15.32
2023-02-11T05:29:36.812Z,13.95
2023-02-11T05:32:03.893Z,14.13
2023-02-11T05:34:31.101Z,14.68
2023-02-11T05:36:58.177Z,14.10
2023-02-11T05:39:25.258Z,14.23
2023-02-11T05:41:52.476Z,13.68
2023-02-11T05:44:19.496Z,9.98
2023-02-11T05:46:46.732Z,12.75
2023-02-11T05:49:13.744Z,11.20
2023-02-11T05:51:41.295Z,13.10
2023-02-11T05:54:08.400Z,11.57
2023-02-11T05:56:35.628Z,13.07
2023-02-11T05:59:02.819Z,16.00
2023-02-11T06:01:29.870Z,15.10
2023-02-11T06:03:57.352Z,14.30
2023-02-11T06:06:25.714Z,14.07
2023-02-11T06:08:52.780Z,17.80
2023-02-11T06:11:20.516Z,19.80
2023-02-11T06:13:47.565Z,14.40
2023-02-11T06:16:14.872Z,16.17
2023-02-11T06:18:42.018Z,14.88
2023-02-11T06:21:11.136Z,16.27
2023-02-11T06:23:39.014Z,11.18
2023-02-11T06:26:09.009Z,14.52
2023-02-11T06:28:36.552Z,13.63
2023-02-11T06:31:07.177Z,14.07
2023-02-11T06:33:35.259Z,14.32
2023-02-11T06:36:03.446Z,14.43
2023-02-11T06:38:30.723Z,12.80
2023-02-11T06:40:57.750Z,11.25
2023-02-11T06:43:24.785Z,12.35
2023-02-11T06:45:56.190Z,12.40
2023-02-11T06:48:24.297Z,11.38
2023-02-11T06:50:51.372Z,11.57
2023-02-11T06:53:18.554Z,16.17
2023-02-11T06:55:45.528Z,11.32
2023-02-11T06:58:12.716Z,11.05
2023-02-11T07:00:39.798Z,14.38
2023-02-11T07:03:06.988Z,37.17
2023-02-11T07:05:34.519Z,15.50
2023-02-11T07:08:01.747Z,12.00
2023-02-11T07:10:28.793Z,10.68
2023-02-11T07:12:58.637Z,12.18
2023-02-11T07:15:26.032Z,13.80
2023-02-11T07:17:53.180Z,13.90
2023-02-11T07:20:20.543Z,14.32
2023-02-11T07:22:47.611Z,16.83
2023-02-11T07:25:16.102Z,11.57
2023-02-11T07:27:43.385Z,13.68
2023-02-11T07:30:11.435Z,16.75
2023-02-11T07:32:38.441Z,17.75
2023-02-11T07:35:06.104Z,15.38
2023-02-11T07:37:36.336Z,13.60
2023-02-11T07:40:03.730Z,10.45
2023-02-11T07:42:32.001Z,16.73
2023-02-11T07:44:59.228Z,13.88
2023-02-11T07:47:26.317Z,15.35
2023-02-11T07:49:56.468Z,22.67
2023-02-11T07:52:23.988Z,18.38
2023-02-11T07:54:51.167Z,19.58
2023-02-11T07:57:18.602Z,20.30
2023-02-11T07:59:45.770Z,18.73
2023-02-11T08:02:12.820Z,15.23
2023-02-11T08:04:40.045Z,14.45
2023-02-11T08:07:07.246Z,17.13
2023-02-11T08:09:34.681Z,18.45
2023-02-11T08:12:01.851Z,18.85
2023-02-11T08:14:29.060Z,19.35
2023-02-11T08:16:56.101Z,26.65
2023-02-11T08:19:23.153Z,21.10
2023-02-11T08:21:50.669Z,32.22
2023-02-11T08:24:17.706Z,27.85
2023-02-11T08:26:44.891Z,22.20
2023-02-11T08:29:14.113Z,20.75
2023-02-11T08:31:43.420Z,25.92
2023-02-11T08:34:11.851Z,17.23
2023-02-11T08:36:40.455Z,17.38
2023-02-11T08:39:19.922Z,15.75
2023-02-11T08:41:50.080Z,20.20
2023-02-11T08:44:19.073Z,14.50
2023-02-11T08:46:46.764Z,18.95
2023-02-11T08:49:14.812Z,20.60
2023-02-11T08:51:42.265Z,17.25
2023-02-11T08:54:10.153Z,20.70
2023-02-11T08:56:39.213Z,22.58
2023-02-11T08:59:07.221Z,23.70
2023-02-11T09:01:34.500Z,22.60
2023-02-11T09:04:01.731Z,29.13
2023-02-11T09:06:29.265Z,18.38
2023-02-11T09:08:57.501Z,16.70
2023-02-11T09:11:36.018Z,17.38
2023-02-11T09:14:04.559Z,18.88
2023-02-11T09:16:33.962Z,21.10
2023-02-11T09:19:02.334Z,17.95
2023-02-11T09:21:30.460Z,12.55
2023-02-11T09:23:58.003Z,17.17
2023-02-11T09:26:28.016Z,9.88
2023-02-11T09:28:55.645Z,15.98
2023-02-11T09:31:26.302Z,25.83
2023-02-11T09:33:57.489Z,17.52
2023-02-11T09:36:30.541Z,15.23
2023-02-11T09:39:00.344Z,14.65
2023-02-11T09:41:49.417Z,19.92
2023-02-11T09:44:28.870Z,18.85
2023-02-11T09:47:15.830Z,18.27
2023-02-11T09:49:48.895Z,13.82
2023-02-11T09:52:18.704Z,28.38
2023-02-11T09:54:53.183Z,12.68
2023-02-11T09:57:28.676Z,17.60
2023-02-11T09:59:57.955Z,19.67
2023-02-11T10:02:48.057Z,25.33
2023-02-11T10:05:21.247Z,15.55
2023-02-11T10:08:07.855Z,17.13
2023-02-11T10:10:48.178Z,22.42
2023-02-11T10:13:30.712Z,18.58
2023-02-11T10:16:18.376Z,37.28
2023-02-11T10:19:07.507Z,16.30
2023-02-11T10:21:46.695Z,16.55
2023-02-11T10:24:16.163Z,19.75
2023-02-11T10:26:44.788Z,16.13
2023-02-11T10:29:16.661Z,33.33
2023-02-11T10:31:46.844Z,10.35
2023-02-11T10:34:15.536Z,15.60
2023-02-11T10:36:44.481Z,12.30
2023-02-11T10:39:17.795Z,11.40
2023-02-11T10:42:11.023Z,13.23
2023-02-11T10:45:00.654Z,14.07
2023-02-11T10:47:33.392Z,22.45
2023-02-11T10:50:03.818Z,18.27
2023-02-11T10:52:31.639Z,20.55
2023-02-11T10:55:24.667Z,25.25
2023-02-11T10:57:56.464Z,9.20
2023-02-11T11:00:29.417Z,8.75
2023-02-11T11:02:59.836Z,17.33
2023-02-11T11:05:46.596Z,8.80
2023-02-11T11:08:13.803Z,11.95
2023-02-11T11:10:44.915Z,15.18
2023-02-11T11:13:31.414Z,15.82
2023-02-11T11:16:13.496Z,15.50
2023-02-11T11:18:49.593Z,21.17
2023-02-11T11:21:36.914Z,16.30
2023-02-11T11:24:04.656Z,23.85
2023-02-11T11:26:48.090Z,9.50
2023-02-11T11:29:24.612Z,15.35
2023-02-11T11:31:54.156Z,12.73
2023-02-11T11:34:33.675Z,13.52
2023-02-11T11:37:10.730Z,9.55
2023-02-11T11:39:39.504Z,14.93
2023-02-11T11:42:28.700Z,13.95
2023-02-11T11:45:19.893Z,8.38
2023-02-11T11:47:58.839Z,27.30
2023-02-11T11:50:53.936Z,17.10
2023-02-11T11:53:21.537Z,17.33
2023-02-11T11:56:05.366Z,12.25
2023-02-11T11:58:32.816Z,17.85
2023-02-11T12:01:05.629Z,19.00
2023-02-11T12:03:51.743Z,16.80
2023-02-11T12:06:35.340Z,20.83
2023-02-11T12:09:18.020Z,17.77
2023-02-11T12:12:09.103Z,21.70
2023-02-11T12:14:36.270Z,12.35
2023-02-11T12:17:21.601Z,14.90
2023-02-11T12:19:57.633Z,18.42
2023-02-11T12:22:39.861Z,15.65
2023-02-11T12:25:28.410Z,17.17
2023-02-11T12:28:16.350Z,17.77
2023-02-11T12:31:34.035Z,15.82
2023-02-11T12:34:31.719Z,15.35
2023-02-11T12:37:09.439Z,11.18
2023-02-11T12:39:42.286Z,19.75
2023-02-11T12:42:55.900Z,15.60
2023-02-11T12:45:39.058Z,23.13
2023-02-11T12:48:13.026Z,12.93
2023-02-11T12:50:43.247Z,9.70
2023-02-11T12:53:41.490Z,14.88
2023-02-11T12:56:25.197Z,12.52
2023-02-11T13:01:37.028Z,15.32
2023-02-11T13:04:16.340Z,24.10
2023-02-11T13:06:56.350Z,19.08
2023-02-11T13:09:30.847Z,15.05
2023-02-11T13:12:22.548Z,14.40
2023-02-11T13:14:53.049Z,9.75
2023-02-11T13:17:36.340Z,16.98
2023-02-11T13:20:20.953Z,13.60
2023-02-11T13:23:10.333Z,20.77
2023-02-11T13:25:53.809Z,13.20
2023-02-11T13:28:28.568Z,9.63
2023-02-11T13:31:03.152Z,19.95
2023-02-11T13:33:39.678Z,11.55
2023-02-11T13:36:06.690Z,13.85
2023-02-11T13:38:34.558Z,10.70
2023-02-11T13:41:22.394Z,12.40
2023-02-11T13:44:22.396Z,11.57
2023-02-11T13:47:07.238Z,9.95
2023-02-11T13:49:42.979Z,19.67
2023-02-11T13:52:35.048Z,13.65
2023-02-11T13:55:21.820Z,15.57
2023-02-11T13:58:07.400Z,21.48
2023-02-11T14:00:34.385Z,12.95
2023-02-11T14:03:29.164Z,16.90
2023-02-11T14:06:37.424Z,11.02
2023-02-11T14:09:10.654Z,12.00
2023-02-11T14:12:16.443Z,19.58
2023-02-11T14:15:07.980Z,17.70
2023-02-11T14:17:35.495Z,13.88
2023-02-11T14:20:05.101Z,19.15
2023-02-11T14:22:47.968Z,13.15
2023-02-11T14:25:24.378Z,14.75
2023-02-11T14:28:02.326Z,10.13
2023-02-11T14:30:51.485Z,23.20
2023-02-11T14:33:48.043Z,15.50
2023-02-11T14:36:43.805Z,14.93
2023-02-11T14:39:32.879Z,12.43
2023-02-11T14:42:02.882Z,22.13
2023-02-11T14:44:33.276Z,25.30
2023-02-11T14:47:00.888Z,13.00
2023-02-11T14:49:32.294Z,19.75
2023-02-11T14:52:28.765Z,18.13
2023-02-11T14:55:17.708Z,20.92
2023-02-11T14:57:45.975Z,13.10
2023-02-11T15:00:22.452Z,10.13
2023-02-11T15:02:49.659Z,14.52
2023-02-11T15:05:26.213Z,18.25
2023-02-11T15:07:56.408Z,12.52
2023-02-11T15:10:44.298Z,13.68
2023-02-11T15:13:27.306Z,18.13
2023-02-11T15:16:10.102Z,17.85
2023-02-11T15:18:45.111Z,17.35
2023-02-11T15:21:12.470Z,22.50
2023-02-11T15:23:41.232Z,15.35
2023-02-11T15:26:18.120Z,19.25
2023-02-11T15:28:52.766Z,20.80
2023-02-11T15:31:23.559Z,17.45
2023-02-11T15:33:51.848Z,24.88
2023-02-11T15:36:24.040Z,9.30
2023-02-11T15:39:41.281Z,15.13
2023-02-11T15:42:27.842Z,15.82
2023-02-11T15:45:17.131Z,17.33
2023-02-11T15:47:51.488Z,14.15
2023-02-11T15:50:26.971Z,15.18
2023-02-11T15:52:56.369Z,15.20
2023-02-11T15:55:25.588Z,18.48
2023-02-11T15:57:57.384Z,24.67
2023-02-11T16:00:36.252Z,12.48
2023-02-11T16:03:03.778Z,19.48
2023-02-11T16:05:34.868Z,13.52
2023-02-11T16:08:27.142Z,14.75
2023-02-11T16:11:03.492Z,13.30
2023-02-11T16:13:43.502Z,13.65
2023-02-11T16:16:26.693Z,15.23
2023-02-11T16:19:05.218Z,14.02
2023-02-11T16:21:42.606Z,26.98
2023-02-11T16:24:20.367Z,12.65
2023-02-11T16:26:50.379Z,12.70
2023-02-11T16:29:37.990Z,23.33
2023-02-11T16:32:21.049Z,22.42
2023-02-11T16:34:51.076Z,14.20
2023-02-11T16:37:18.328Z,26.10
2023-02-11T16:39:45.547Z,23.35
2023-02-11T16:42:13.137Z,18.95
2023-02-11T16:44:40.161Z,15.85
2023-02-11T16:47:17.076Z,14.05
2023-02-11T16:49:44.310Z,14.32
2023-02-11T16:52:16.316Z,13.82
2023-02-11T16:54:43.539Z,14.20
2023-02-11T16:57:24.355Z,18.52
2023-02-11T16:59:52.301Z,12.20
2023-02-11T17:02:26.004Z,16.08
2023-02-11T17:04:55.410Z,12.43
2023-02-11T17:07:22.836Z,13.95
2023-02-11T17:09:50.292Z,15.38
2023-02-11T17:12:17.308Z,18.48
2023-02-11T17:14:44.405Z,14.73
2023-02-11T17:17:12.128Z,12.85
2023-02-11T17:19:39.676Z,14.93
2023-02-11T17:22:07.010Z,15.43
2023-02-11T17:24:34.187Z,14.35
2023-02-11T17:27:01.217Z,16.63
2023-02-11T17:29:28.724Z,13.27
2023-02-11T17:31:55.937Z,20.90
2023-02-11T17:34:23.989Z,15.73
2023-02-11T17:36:51.959Z,14.95
2023-02-11T17:39:21.236Z,15.48
2023-02-11T17:41:48.460Z,18.27
2023-02-11T17:44:16.629Z,17.15
2023-02-11T17:46:44.019Z,15.40
2023-02-11T17:49:12.462Z,14.52
2023-02-11T17:51:40.778Z,16.90
2023-02-11T17:54:11.393Z,19.60
2023-02-11T17:56:39.312Z,13.82
2023-02-11T17:59:08.643Z,16.08
2023-02-11T18:01:37.288Z,17.35
2023-02-11T18:04:05.446Z,19.88
2023-02-11T18:06:33.962Z,20.88
2023-02-11T18:09:04.428Z,18.77
2023-02-11T18:11:34.136Z,20.98
2023-02-11T18:14:07.890Z,19.40
2023-02-11T18:16:39.374Z,18.50
2023-02-11T18:19:07.884Z,19.50
2023-02-11T18:21:35.376Z,18.70
2023-02-11T18:24:06.527Z,24.88
2023-02-11T18:26:34.685Z,21.90
2023-02-11T18:29:02.037Z,25.10
2023-02-11T18:31:29.437Z,25.60
2023-02-11T18:33:56.631Z,25.75
2023-02-11T18:36:23.766Z,26.67
2023-02-11T18:38:52.758Z,24.50
2023-02-11T18:41:20.033Z,22.00
2023-02-11T18:43:47.217Z,25.92
2023-02-11T18:46:15.491Z,26.10
2023-02-11T18:48:44.936Z,26.23
2023-02-11T18:51:21.205Z,25.70
2023-02-11T18:53:48.386Z,26.13
2023-02-11T18:56:18.255Z,24.60
2023-02-11T18:58:45.486Z,25.35
2023-02-11T19:01:18.673Z,24.92
2023-02-11T19:03:45.991Z,32.30
2023-02-11T19:06:25.581Z,24.83
2023-02-11T19:08:55.913Z,26.17
2023-02-11T19:11:44.081Z,26.50
2023-02-11T19:14:11.797Z,29.17
2023-02-11T19:16:41.769Z,29.15
2023-02-11T19:19:09.626Z,31.45
2023-02-11T19:21:37.128Z,26.05
2023-02-11T19:24:08.335Z,30.80
2023-02-11T19:26:36.406Z,25.88
2023-02-11T19:29:05.817Z,32.53
2023-02-11T19:31:33.093Z,31.83
2023-02-11T19:34:02.008Z,31.15
2023-02-11T19:36:29.776Z,30.60
2023-02-11T19:39:01.052Z,26.60
2023-02-11T19:41:29.608Z,24.55
2023-02-11T19:43:57.159Z,30.45
2023-02-11T19:46:26.118Z,29.55
2023-02-11T19:48:53.694Z,26.60
2023-02-11T19:51:21.091Z,31.33
2023-02-11T19:53:49.001Z,30.83
2023-02-11T19:56:16.304Z,29.55
2023-02-11T19:58:44.347Z,28.92
2023-02-11T20:01:13.072Z,30.52
2023-02-11T20:03:42.417Z,27.33
2023-02-11T20:06:13.174Z,24.63
2023-02-11T20:08:41.402Z,29.73
2023-02-11T20:11:11.239Z,27.58
2023-02-11T20:13:38.694Z,26.00
2023-02-11T20:16:14.200Z,26.23
2023-02-11T20:18:41.373Z,30.00
2023-02-11T20:21:10.979Z,32.03
2023-02-11T20:23:40.350Z,26.63
2023-02-11T20:26:09.885Z,27.17
2023-02-11T20:28:37.301Z,26.38
2023-02-11T20:31:05.771Z,28.08
2023-02-11T20:33:34.932Z,25.15
2023-02-11T20:36:23.671Z,28.42
2023-02-11T20:38:51.668Z,23.67
2023-02-11T20:41:22.479Z,23.13
2023-02-11T20:43:53.278Z,23.85
2023-02-11T20:46:23.831Z,28.27
2023-02-11T20:48:52.212Z,29.00
2023-02-11T20:51:23.070Z,25.98
2023-02-11T20:53:54.270Z,27.98
2023-02-11T20:56:24.150Z,25.52
2023-02-11T20:58:51.614Z,27.77
2023-02-11T21:01:24.098Z,32.15
2023-02-11T21:04:02.566Z,29.97
2023-02-11T21:06:36.161Z,27.95
2023-02-11T21:09:05.722Z,24.73
2023-02-11T21:11:32.938Z,25.90
2023-02-11T21:14:02.534Z,27.17
2023-02-11T21:16:31.458Z,30.60
2023-02-11T21:18:58.728Z,30.75
2023-02-11T21:21:26.322Z,37.67
2023-02-11T21:23:53.379Z,30.95
2023-02-11T21:26:20.548Z,34.50
2023-02-11T21:28:48.827Z,34.33
2023-02-11T21:31:27.902Z,27.83
2023-02-11T21:33:55.672Z,23.40
2023-02-11T21:36:24.092Z,26.80
2023-02-11T21:38:51.291Z,31.17
2023-02-11T21:41:21.345Z,27.05
2023-02-11T21:43:49.209Z,27.20
2023-02-11T21:46:17.563Z,27.15
2023-02-11T21:48:44.851Z,29.30
2023-02-11T21:51:19.190Z,26.50
2023-02-11T21:53:46.600Z,25.17
2023-02-11T21:56:16.373Z,29.80
2023-02-11T21:58:43.865Z,28.60
2023-02-11T22:01:20.001Z,29.90
2023-02-11T22:03:47.884Z,35.05
2023-02-11T22:06:21.757Z,33.88
2023-02-11T22:08:50.246Z,31.85
2023-02-11T22:11:17.901Z,30.27
2023-02-11T22:13:45.998Z,32.10
2023-02-11T22:16:15.958Z,32.00
2023-02-11T22:18:47.109Z,29.73
2023-02-11T22:21:18.399Z,31.15
2023-02-11T22:23:46.130Z,29.17
2023-02-11T22:26:15.963Z,31.33
2023-02-11T22:28:43.855Z,31.35
2023-02-11T22:31:19.244Z,29.38
2023-02-11T22:33:46.998Z,30.23
2023-02-11T22:36:22.627Z,32.13
2023-02-11T22:38:50.336Z,28.33
2023-02-11T22:41:18.829Z,28.10
2023-02-11T22:43:46.432Z,30.25
2023-02-11T22:46:16.807Z,30.58
2023-02-11T22:48:44.255Z,28.33
2023-02-11T22:51:14.403Z,27.92
2023-02-11T22:53:43.778Z,27.60
2023-02-11T22:56:15.310Z,25.52
2023-02-11T22:58:43.268Z,28.92
2023-02-11T23:01:10.657Z,29.75
2023-02-11T23:03:37.842Z,30.17
2023-02-11T23:06:05.648Z,27.00
2023-02-11T23:08:33.802Z,25.02
2023-02-11T23:11:10.197Z,29.75
2023-02-11T23:13:39.836Z,28.63
2023-02-11T23:16:10.674Z,30.98
2023-02-11T23:18:39.532Z,27.17
2023-02-11T23:21:12.351Z,25.15
2023-02-11T23:23:40.141Z,26.52
2023-02-11T23:26:13.413Z,27.73
2023-02-11T23:28:41.090Z,25.30
2023-02-11T23:31:14.186Z,22.55
2023-02-11T23:33:41.381Z,22.80
2023-02-11T23:36:08.663Z,24.33
2023-02-11T23:38:35.847Z,21.40
2023-02-11T23:41:03.129Z,21.33
2023-02-11T23:43:30.542Z,24.63
2023-02-11T23:45:57.930Z,22.75
2023-02-11T23:48:26.044Z,24.08
2023-02-11T23:50:53.553Z,22.25
2023-02-11T23:53:20.731Z,19.65
2023-02-11T23:55:47.825Z,22.33
2023-02-11T23:58:16.845Z,23.75
